createdAt,value
2023-04-19T00:00:48.285Z,13.60
2023-04-19T00:03:17.665Z,15.18
2023-04-19T00:05:44.809Z,14.38
2023-04-19T00:08:11.691Z,15.80
2023-04-19T00:10:40.092Z,15.13
2023-04-19T00:13:07.332Z,15.10
2023-04-19T00:15:36.451Z,16.30
2023-04-19T00:18:03.666Z,16.27
2023-04-19T00:20:31.118Z,15.70
2023-04-19T00:22:59.333Z,14.75
2023-04-19T00:25:26.794Z,15.95
2023-04-19T00:27:53.837Z,16.73
2023-04-19T00:30:20.747Z,15.55
2023-04-19T00:32:47.566Z,15.77
2023-04-19T00:35:14.970Z,15.93
2023-04-19T00:37:41.714Z,16.42
2023-04-19T00:40:09.026Z,16.75
2023-04-19T00:42:36.256Z,16.23
2023-04-19T00:45:03.092Z,16.55
2023-04-19T00:47:30.598Z,15.90
2023-04-19T00:49:57.519Z,14.98
2023-04-19T00:52:24.335Z,16.38
2023-04-19T00:54:51.515Z,17.20
2023-04-19T00:57:18.597Z,16.40
2023-04-19T00:59:45.764Z,17.83
2023-04-19T01:02:13.180Z,16.02
2023-04-19T01:04:40.198Z,16.75
2023-04-19T01:07:07.906Z,15.63
2023-04-19T01:09:36.430Z,17.05
2023-04-19T01:12:03.606Z,16.30
2023-04-19T01:14:30.879Z,16.70
2023-04-19T01:16:57.963Z,16.40
2023-04-19T01:19:25.183Z,15.68
2023-04-19T01:21:58.421Z,17.70
2023-04-19T01:24:25.547Z,17.15
2023-04-19T01:26:52.403Z,17.58
2023-04-19T01:29:21.204Z,18.27
2023-04-19T01:31:53.451Z,17.88
2023-04-19T01:34:20.621Z,18.40
2023-04-19T01:36:47.775Z,18.30
2023-04-19T01:39:14.723Z,17.45
2023-04-19T01:41:41.582Z,19.13
2023-04-19T01:44:08.890Z,18.92
2023-04-19T01:46:39.201Z,17.88
2023-04-19T01:49:06.586Z,17.80
2023-04-19T01:51:33.678Z,19.13
2023-04-19T01:54:02.239Z,17.85
2023-04-19T01:56:29.064Z,18.42
2023-04-19T01:58:56.785Z,18.73
2023-04-19T02:01:24.468Z,17.95
2023-04-19T02:03:51.845Z,18.75
2023-04-19T02:06:20.041Z,19.52
2023-04-19T02:08:47.054Z,17.52
2023-04-19T02:11:16.723Z,17.73
2023-04-19T02:13:43.623Z,17.70
2023-04-19T02:16:11.013Z,20.02
2023-04-19T02:18:41.751Z,20.73
2023-04-19T02:21:09.321Z,18.77
2023-04-19T02:23:36.669Z,20.17
2023-04-19T02:26:03.543Z,19.80
2023-04-19T02:28:33.409Z,18.17
2023-04-19T02:31:04.492Z,18.77
2023-04-19T02:33:31.611Z,20.17
2023-04-19T02:35:58.483Z,18.73
2023-04-19T02:38:25.307Z,19.38
2023-04-19T02:40:52.205Z,19.60
2023-04-19T02:43:19.278Z,19.42
2023-04-19T02:45:46.241Z,19.73
2023-04-19T02:48:13.183Z,20.40
2023-04-19T02:50:40.059Z,21.02
2023-04-19T02:53:07.114Z,20.77
2023-04-19T02:55:33.903Z,20.42
2023-04-19T02:58:00.790Z,20.08
2023-04-19T03:00:28.127Z,20.25
2023-04-19T03:02:56.395Z,20.70
2023-04-19T03:05:24.587Z,19.83
2023-04-19T03:07:51.472Z,20.58
2023-04-19T03:10:18.595Z,19.83
2023-04-19T03:12:45.439Z,20.35
2023-04-19T03:15:12.385Z,19.85
2023-04-19T03:17:39.536Z,21.23
2023-04-19T03:20:11.705Z,21.52
2023-04-19T03:22:38.548Z,21.33
2023-04-19T03:25:05.754Z,22.50
2023-04-19T03:27:35.309Z,22.42
2023-04-19T03:30:03.725Z,22.00
2023-04-19T03:32:32.426Z,21.90
2023-04-19T03:35:00.076Z,22.02
2023-04-19T03:37:30.334Z,22.70
2023-04-19T03:39:58.213Z,22.23
2023-04-19T03:42:28.865Z,22.02
2023-04-19T03:44:58.182Z,22.77
2023-04-19T03:47:25.552Z,23.85
2023-04-19T03:49:56.013Z,24.08
2023-04-19T03:52:24.828Z,26.50
2023-04-19T03:54:51.880Z,24.92
2023-04-19T03:57:19.801Z,25.52
2023-04-19T03:59:46.608Z,23.98
2023-04-19T04:02:14.922Z,25.27
2023-04-19T04:04:42.331Z,24.67
2023-04-19T04:07:09.379Z,25.20
2023-04-19T04:09:36.263Z,25.17
2023-04-19T04:12:03.114Z,23.75
2023-04-19T04:14:30.006Z,23.70
2023-04-19T04:16:59.515Z,23.95
2023-04-19T04:19:26.823Z,23.73
2023-04-19T04:21:54.813Z,23.75
2023-04-19T04:24:22.723Z,23.80
2023-04-19T04:26:52.128Z,24.00
2023-04-19T04:29:21.425Z,24.35
2023-04-19T04:31:49.343Z,25.02
2023-04-19T04:34:17.236Z,24.50
2023-04-19T04:36:46.631Z,22.08
2023-04-19T04:39:17.769Z,23.67
2023-04-19T04:41:45.034Z,22.10
2023-04-19T04:44:13.878Z,24.65
2023-04-19T04:46:42.061Z,23.85
2023-04-19T04:49:08.858Z,23.50
2023-04-19T04:51:37.282Z,23.73
2023-04-19T04:54:05.537Z,23.17
2023-04-19T04:56:32.366Z,23.23
2023-04-19T04:59:00.441Z,23.13
2023-04-19T05:01:27.380Z,22.35
2023-04-19T05:03:54.197Z,24.27
2023-04-19T05:06:22.319Z,24.05
2023-04-19T05:08:49.287Z,24.00
2023-04-19T05:11:17.336Z,22.60
2023-04-19T05:13:49.968Z,23.63
2023-04-19T05:16:18.945Z,23.98
2023-04-19T05:21:31.084Z,24.65
2023-04-19T05:24:00.931Z,24.08
2023-04-19T05:26:29.332Z,25.52
2023-04-19T05:29:00.650Z,24.60
2023-04-19T05:31:33.790Z,24.05
2023-04-19T05:36:36.170Z,23.92
2023-04-19T05:41:48.553Z,24.65
2023-04-19T05:44:18.951Z,25.58
2023-04-19T05:46:48.186Z,25.70
2023-04-19T05:49:19.215Z,26.17
2023-04-19T05:51:51.181Z,25.35
2023-04-19T05:54:19.043Z,24.92
2023-04-19T05:56:48.665Z,25.77
2023-04-19T05:59:24.876Z,25.88
2023-04-19T06:01:56.477Z,25.48
2023-04-19T06:04:32.302Z,24.25
2023-04-19T06:07:30.946Z,24.92
2023-04-19T06:10:08.471Z,24.83
2023-04-19T06:12:40.364Z,25.02
2023-04-19T06:15:07.871Z,26.17
2023-04-19T06:17:41.695Z,25.48
2023-04-19T06:20:17.123Z,24.08
2023-04-19T06:22:47.696Z,24.00
2023-04-19T06:25:19.846Z,25.90
2023-04-19T06:27:46.876Z,27.70
2023-04-19T06:30:15.424Z,24.92
2023-04-19T06:32:45.273Z,24.52
2023-04-19T06:35:20.821Z,25.00
2023-04-19T06:37:51.532Z,25.38
2023-04-19T06:40:21.746Z,25.73
2023-04-19T06:42:51.931Z,26.73
2023-04-19T06:45:21.588Z,25.05
2023-04-19T06:47:50.272Z,25.50
2023-04-19T06:50:20.884Z,24.88
2023-04-19T06:52:52.409Z,24.52
2023-04-19T06:55:21.388Z,25.20
2023-04-19T06:57:54.325Z,24.30
2023-04-19T07:00:22.345Z,24.83
2023-04-19T07:05:36.880Z,25.38
2023-04-19T07:08:04.837Z,25.13
2023-04-19T07:10:36.041Z,22.73
2023-04-19T07:13:05.864Z,22.58
2023-04-19T07:15:36.403Z,22.75
2023-04-19T07:18:07.402Z,21.00
2023-04-19T07:20:35.279Z,21.58
2023-04-19T07:23:04.775Z,22.02
2023-04-19T07:25:35.935Z,20.13
2023-04-19T07:28:06.986Z,20.80
2023-04-19T07:30:46.650Z,18.52
2023-04-19T07:33:18.125Z,18.83
2023-04-19T07:35:45.330Z,17.92
2023-04-19T07:38:13.853Z,19.02
2023-04-19T07:40:42.718Z,15.95
2023-04-19T07:43:12.117Z,16.30
2023-04-19T07:45:41.622Z,15.18
2023-04-19T07:48:12.354Z,15.70
2023-04-19T07:50:44.096Z,14.85
2023-04-19T07:53:14.517Z,14.32
2023-04-19T07:55:45.427Z,13.90
2023-04-19T07:58:14.935Z,14.10
2023-04-19T08:00:52.269Z,14.18
2023-04-19T08:03:24.455Z,13.60
2023-04-19T08:05:55.496Z,14.23
2023-04-19T08:08:26.426Z,14.52
2023-04-19T08:10:58.754Z,14.27
2023-04-19T08:13:29.652Z,16.33
2023-04-19T08:16:40.011Z,14.23
2023-04-19T08:21:41.290Z,14.20
2023-04-19T08:24:23.379Z,14.30
2023-04-19T08:27:00.329Z,14.75
2023-04-19T08:29:35.854Z,13.43
2023-04-19T08:32:10.474Z,13.07
2023-04-19T08:34:44.284Z,13.20
2023-04-19T08:37:13.898Z,12.93
2023-04-19T08:39:44.920Z,13.07
2023-04-19T08:42:24.706Z,12.60
2023-04-19T08:45:23.455Z,13.35
2023-04-19T08:48:00.827Z,13.38
2023-04-19T08:50:36.009Z,12.68
2023-04-19T08:53:25.459Z,13.50
2023-04-19T08:56:10.882Z,12.10
2023-04-19T09:01:34.713Z,12.27
2023-04-19T09:04:26.447Z,12.23
2023-04-19T09:06:56.377Z,11.63
2023-04-19T09:09:38.754Z,11.35
2023-04-19T09:12:18.830Z,10.38
2023-04-19T09:15:00.617Z,9.13
2023-04-19T09:17:32.133Z,7.85
2023-04-19T09:20:11.530Z,7.45
2023-04-19T09:22:46.517Z,7.30
2023-04-19T09:25:47.068Z,8.23
2023-04-19T09:28:28.411Z,7.80
2023-04-19T09:31:05.804Z,8.02
2023-04-19T09:33:44.781Z,9.07
2023-04-19T09:36:14.729Z,9.18
2023-04-19T09:38:52.179Z,8.65
2023-04-19T09:41:19.594Z,8.55
2023-04-19T09:46:43.828Z,8.20
2023-04-19T09:49:41.190Z,8.23
2023-04-19T09:52:18.745Z,8.85
2023-04-19T09:54:49.019Z,8.50
2023-04-19T10:00:08.836Z,8.02
2023-04-19T10:02:37.226Z,8.50
2023-04-19T10:05:19.759Z,8.32
2023-04-19T10:07:59.688Z,8.60
2023-04-19T10:13:19.728Z,8.68
2023-04-19T10:15:54.016Z,7.60
2023-04-19T10:21:22.069Z,8.40
2023-04-19T10:23:50.279Z,7.45
2023-04-19T10:26:19.483Z,8.40
2023-04-19T10:28:53.254Z,7.57
2023-04-19T10:31:27.422Z,7.22
2023-04-19T10:34:01.266Z,8.38
2023-04-19T10:36:31.221Z,8.52
2023-04-19T10:39:00.298Z,9.15
2023-04-19T10:41:51.599Z,9.07
2023-04-19T10:44:25.174Z,8.35
2023-04-19T10:46:54.957Z,9.23
2023-04-19T10:49:23.691Z,8.95
2023-04-19T10:51:53.176Z,9.35
2023-04-19T10:54:34.895Z,8.70
2023-04-19T10:57:06.767Z,8.70
2023-04-19T10:59:44.061Z,9.45
2023-04-19T11:02:29.636Z,8.85
2023-04-19T11:05:01.362Z,10.00
2023-04-19T11:07:33.117Z,9.57
2023-04-19T11:10:00.647Z,10.18
2023-04-19T11:12:35.148Z,9.65
2023-04-19T11:15:03.248Z,9.57
2023-04-19T11:17:37.743Z,8.25
2023-04-19T11:20:10.259Z,9.88
2023-04-19T11:22:51.439Z,9.55
2023-04-19T11:25:27.261Z,9.10
2023-04-19T11:27:59.224Z,8.68
2023-04-19T11:30:42.405Z,9.40
2023-04-19T11:33:09.254Z,8.82
2023-04-19T11:35:36.963Z,9.18
2023-04-19T11:38:06.734Z,9.05
2023-04-19T11:40:40.700Z,9.48
2023-04-19T11:45:55.732Z,7.43
2023-04-19T11:51:09.870Z,7.15
2023-04-19T11:53:42.994Z,6.13
2023-04-19T11:56:15.964Z,6.50
2023-04-19T12:01:43.326Z,5.72
2023-04-19T12:07:10.341Z,6.32
2023-04-19T12:15:38.081Z,6.10
2023-04-19T12:18:12.732Z,6.45
2023-04-19T12:20:51.016Z,6.18
2023-04-19T12:23:44.950Z,6.53
2023-04-19T12:26:16.728Z,6.75
2023-04-19T12:31:26.666Z,5.88
2023-04-19T12:33:55.412Z,6.38
2023-04-19T12:36:22.954Z,6.35
2023-04-19T12:38:53.187Z,6.10
2023-04-19T12:41:23.691Z,6.97
2023-04-19T12:43:51.271Z,6.32
2023-04-19T12:46:18.784Z,5.97
2023-04-19T12:48:54.823Z,6.38
2023-04-19T12:51:24.246Z,6.55
2023-04-19T12:53:57.646Z,6.15
2023-04-19T12:56:31.725Z,6.88
2023-04-19T12:59:08.238Z,6.22
2023-04-19T13:01:37.995Z,6.72
2023-04-19T13:06:54.854Z,6.95
2023-04-19T13:09:23.212Z,6.20
2023-04-19T13:11:50.564Z,6.55
2023-04-19T13:17:08.377Z,6.75
2023-04-19T13:19:35.819Z,6.38
2023-04-19T13:22:07.240Z,6.90
2023-04-19T13:24:39.399Z,6.95
2023-04-19T13:27:09.459Z,6.75
2023-04-19T13:29:40.280Z,6.32
2023-04-19T13:32:13.900Z,6.28
2023-04-19T13:34:45.151Z,6.63
2023-04-19T13:37:21.589Z,6.20
2023-04-19T13:39:49.086Z,6.05
2023-04-19T13:42:28.754Z,6.10
2023-04-19T13:44:57.968Z,6.35
2023-04-19T13:47:28.591Z,6.00
2023-04-19T13:52:40.623Z,6.03
2023-04-19T13:55:15.294Z,5.50
2023-04-19T13:57:51.132Z,6.18
2023-04-19T14:00:19.438Z,5.35
2023-04-19T14:02:50.025Z,5.15
2023-04-19T14:05:20.654Z,4.57
2023-04-19T14:07:51.701Z,4.63
2023-04-19T14:10:21.547Z,5.22
2023-04-19T14:12:53.501Z,4.90
2023-04-19T14:15:35.121Z,5.07
2023-04-19T14:18:18.978Z,4.70
2023-04-19T14:20:57.994Z,5.07
2023-04-19T14:26:19.043Z,4.57
2023-04-19T14:28:54.079Z,5.00
2023-04-19T14:31:29.475Z,4.85
2023-04-19T14:34:00.340Z,4.13
2023-04-19T14:36:38.175Z,4.88
2023-04-19T14:39:15.715Z,4.72
2023-04-19T14:47:17.617Z,6.03
2023-04-19T14:49:47.710Z,5.40
2023-04-19T14:52:24.622Z,5.18
2023-04-19T14:55:00.313Z,4.82
2023-04-19T14:57:41.826Z,4.68
2023-04-19T15:00:13.823Z,5.05
2023-04-19T15:02:49.009Z,5.60
2023-04-19T15:11:14.768Z,4.97
2023-04-19T15:16:41.124Z,5.10
2023-04-19T15:19:11.007Z,5.20
2023-04-19T15:21:41.699Z,5.85
2023-04-19T15:24:13.794Z,5.00
2023-04-19T15:26:50.905Z,4.63
2023-04-19T15:29:22.886Z,4.63
2023-04-19T15:34:37.186Z,4.28
2023-04-19T15:37:19.256Z,4.20
2023-04-19T15:39:49.142Z,4.20
2023-04-19T15:45:11.205Z,4.53
2023-04-19T15:47:40.887Z,4.20
2023-04-19T15:50:12.809Z,4.18
2023-04-19T15:52:40.336Z,4.63
2023-04-19T15:55:07.378Z,4.53
2023-04-19T15:57:34.631Z,4.80
2023-04-19T16:00:05.728Z,4.30
2023-04-19T16:02:35.166Z,4.57
2023-04-19T16:08:07.244Z,4.13
2023-04-19T16:10:41.556Z,3.85
2023-04-19T16:16:04.949Z,4.28
2023-04-19T16:24:52.405Z,3.83
2023-04-19T16:30:25.006Z,4.53
2023-04-19T16:33:12.122Z,4.43
2023-04-19T16:35:49.162Z,4.47
2023-04-19T16:41:55.516Z,4.30
2023-04-19T16:44:33.836Z,5.32
2023-04-19T16:47:07.416Z,5.18
2023-04-19T16:52:31.774Z,4.93
2023-04-19T16:55:00.684Z,5.82
2023-04-19T17:01:04.536Z,5.60
2023-04-19T17:33:54.781Z,6.63
2023-04-19T17:48:21.804Z,7.40
2023-04-19T17:53:54.164Z,8.15
2023-04-19T17:56:21.575Z,7.13
2023-04-19T18:01:38.914Z,7.82
2023-04-19T19:04:52.114Z,7.68
2023-04-19T19:07:35.517Z,8.07
2023-04-19T19:10:19.179Z,7.75
2023-04-19T19:12:53.858Z,7.40
2023-04-19T19:15:21.521Z,7.83
2023-04-19T19:17:50.634Z,7.50
2023-04-19T19:20:21.964Z,7.22
2023-04-19T19:22:51.466Z,7.65
2023-04-19T19:25:19.160Z,9.10
2023-04-19T19:39:27.423Z,6.72
2023-04-19T19:42:06.093Z,6.47
2023-04-19T19:44:46.121Z,6.90
2023-04-19T19:47:17.186Z,6.43
2023-04-19T19:50:25.454Z,6.78
2023-04-19T19:52:42.295Z,6.93
2023-04-19T19:55:16.338Z,7.30
2023-04-19T20:05:52.381Z,7.38
2023-04-19T20:11:03.644Z,7.32
2023-04-19T20:13:33.915Z,7.53
2023-04-19T20:16:02.854Z,7.72
2023-04-19T20:18:39.468Z,8.13
2023-04-19T20:24:03.234Z,7.43
2023-04-19T20:29:03.450Z,7.00
2023-04-19T20:31:36.280Z,7.95
2023-04-19T20:34:03.762Z,7.47
2023-04-19T20:36:35.130Z,7.28
2023-04-19T20:39:13.367Z,7.80
2023-04-19T20:41:45.326Z,7.60
2023-04-19T20:44:14.425Z,7.18
2023-04-19T20:49:35.699Z,6.60
2023-04-19T20:52:04.609Z,6.63
2023-04-19T20:54:32.590Z,6.95
2023-04-19T20:57:07.338Z,7.13
2023-04-19T20:59:40.511Z,7.38
2023-04-19T21:04:37.212Z,7.07
2023-04-19T21:07:05.658Z,7.22
2023-04-19T21:09:36.794Z,7.10
2023-04-19T21:12:03.719Z,7.57
2023-04-19T21:14:35.116Z,8.10
2023-04-19T21:17:05.033Z,10.35
2023-04-19T22:08:35.150Z,7.40
2023-04-19T22:11:04.909Z,8.20
2023-04-19T22:13:36.650Z,7.50
2023-04-19T22:16:07.592Z,8.50
2023-04-19T22:18:45.157Z,8.00
2023-04-19T22:21:12.851Z,8.73
2023-04-19T22:23:42.265Z,8.18
2023-04-19T22:26:10.552Z,7.53
2023-04-19T22:28:39.348Z,8.00
2023-04-19T22:31:10.163Z,9.50
2023-04-19T22:33:37.463Z,8.52
2023-04-19T22:36:06.893Z,8.02
2023-04-19T22:45:50.691Z,8.65
2023-04-19T22:48:18.954Z,9.13
2023-04-19T22:50:55.214Z,9.15
2023-04-19T22:53:22.022Z,9.23
2023-04-19T22:55:48.870Z,9.35
2023-04-19T22:58:24.294Z,9.93
2023-04-19T23:00:52.364Z,9.88
2023-04-19T23:03:20.226Z,9.35
2023-04-19T23:05:48.455Z,8.80
2023-04-19T23:08:16.054Z,8.75
2023-04-19T23:10:44.641Z,9.23
2023-04-19T23:13:11.802Z,9.15
2023-04-19T23:15:40.341Z,9.63
2023-04-19T23:18:09.851Z,9.45
2023-04-19T23:20:37.586Z,9.65
2023-04-19T23:23:07.767Z,10.00
2023-04-19T23:25:36.229Z,9.77
2023-04-19T23:28:04.526Z,9.30
2023-04-19T23:30:32.359Z,9.15
2023-04-19T23:32:59.710Z,10.00
2023-04-19T23:35:26.628Z,11.35
2023-04-19T23:37:55.474Z,9.57
2023-04-19T23:40:22.298Z,9.52
2023-04-19T23:42:49.111Z,9.40
2023-04-19T23:45:19.660Z,10.27
2023-04-19T23:47:48.168Z,10.32
2023-04-19T23:50:15.052Z,9.73
2023-04-19T23:52:42.417Z,10.40
2023-04-19T23:55:11.017Z,10.55
2023-04-19T23:57:39.071Z,10.65
